sensor_id;sensor_type;location;lat;lon;timestamp;P1;durP1;ratioP1;P2;durP2;ratioP2
27163;SDS011;14685;50.618;7.024;2024-03-29T00:00:40;3.85;;;0.88;;
27163;SDS011;14685;50.618;7.024;2024-03-29T00:03:07;2.40;;;1.00;;
27163;SDS011;14685;50.618;7.024;2024-03-29T00:05:34;2.90;;;1.08;;
27163;SDS011;14685;50.618;7.024;2024-03-29T00:08:00;4.03;;;0.82;;
27163;SDS011;14685;50.618;7.024;2024-03-29T00:10:26;4.50;;;1.00;;
27163;SDS011;14685;50.618;7.024;2024-03-29T00:12:52;1.77;;;0.90;;
27163;SDS011;14685;50.618;7.024;2024-03-29T00:15:18;4.53;;;0.98;;
27163;SDS011;14685;50.618;7.024;2024-03-29T00:17:44;2.83;;;0.85;;
27163;SDS011;14685;50.618;7.024;2024-03-29T00:20:09;3.97;;;1.00;;
27163;SDS011;14685;50.618;7.024;2024-03-29T00:22:37;4.20;;;1.23;;
27163;SDS011;14685;50.618;7.024;2024-03-29T00:25:03;3.17;;;0.90;;
27163;SDS011;14685;50.618;7.024;2024-03-29T00:27:29;8.90;;;1.10;;
27163;SDS011;14685;50.618;7.024;2024-03-29T00:29:55;3.53;;;1.00;;
27163;SDS011;14685;50.618;7.024;2024-03-29T00:32:22;3.50;;;1.20;;
27163;SDS011;14685;50.618;7.024;2024-03-29T00:34:49;3.92;;;1.20;;
27163;SDS011;14685;50.618;7.024;2024-03-29T00:37:16;1.85;;;0.80;;
27163;SDS011;14685;50.618;7.024;2024-03-29T00:39:42;4.30;;;0.82;;
27163;SDS011;14685;50.618;7.024;2024-03-29T00:42:08;3.45;;;1.17;;
27163;SDS011;14685;50.618;7.024;2024-03-29T00:44:35;1.45;;;0.80;;
27163;SDS011;14685;50.618;7.024;2024-03-29T00:47:03;3.83;;;1.00;;
27163;SDS011;14685;50.618;7.024;2024-03-29T00:49:32;5.35;;;1.10;;
27163;SDS011;14685;50.618;7.024;2024-03-29T00:51:58;3.78;;;1.20;;
27163;SDS011;14685;50.618;7.024;2024-03-29T00:54:25;2.38;;;0.98;;
27163;SDS011;14685;50.618;7.024;2024-03-29T00:56:51;2.72;;;1.10;;
27163;SDS011;14685;50.618;7.024;2024-03-29T00:59:17;4.50;;;1.13;;
27163;SDS011;14685;50.618;7.024;2024-03-29T01:01:44;3.90;;;1.55;;
27163;SDS011;14685;50.618;7.024;2024-03-29T01:04:10;2.78;;;0.98;;
27163;SDS011;14685;50.618;7.024;2024-03-29T01:06:36;4.07;;;1.02;;
27163;SDS011;14685;50.618;7.024;2024-03-29T01:09:03;3.63;;;1.27;;
27163;SDS011;14685;50.618;7.024;2024-03-29T01:11:29;2.65;;;0.80;;
27163;SDS011;14685;50.618;7.024;2024-03-29T01:13:55;4.05;;;1.30;;
27163;SDS011;14685;50.618;7.024;2024-03-29T01:16:22;3.03;;;0.95;;
27163;SDS011;14685;50.618;7.024;2024-03-29T01:18:48;3.15;;;1.10;;
27163;SDS011;14685;50.618;7.024;2024-03-29T01:21:14;3.53;;;1.15;;
27163;SDS011;14685;50.618;7.024;2024-03-29T01:23:40;2.88;;;1.05;;
27163;SDS011;14685;50.618;7.024;2024-03-29T01:26:07;3.58;;;1.38;;
27163;SDS011;14685;50.618;7.024;2024-03-29T01:28:33;5.05;;;1.10;;
27163;SDS011;14685;50.618;7.024;2024-03-29T01:30:59;3.13;;;1.30;;
27163;SDS011;14685;50.618;7.024;2024-03-29T01:33:25;3.65;;;1.30;;
27163;SDS011;14685;50.618;7.024;2024-03-29T01:35:51;2.95;;;1.10;;
27163;SDS011;14685;50.618;7.024;2024-03-29T01:38:18;3.70;;;1.10;;
27163;SDS011;14685;50.618;7.024;2024-03-29T01:40:44;5.47;;;1.50;;
27163;SDS011;14685;50.618;7.024;2024-03-29T01:43:10;3.53;;;1.33;;
27163;SDS011;14685;50.618;7.024;2024-03-29T01:45:36;3.25;;;1.40;;
27163;SDS011;14685;50.618;7.024;2024-03-29T01:48:04;1.75;;;1.00;;
27163;SDS011;14685;50.618;7.024;2024-03-29T01:50:31;4.18;;;1.10;;
27163;SDS011;14685;50.618;7.024;2024-03-29T01:52:58;3.15;;;0.93;;
27163;SDS011;14685;50.618;7.024;2024-03-29T01:55:25;2.88;;;1.02;;
27163;SDS011;14685;50.618;7.024;2024-03-29T01:57:51;3.45;;;1.20;;
27163;SDS011;14685;50.618;7.024;2024-03-29T02:00:17;2.88;;;1.13;;
27163;SDS011;14685;50.618;7.024;2024-03-29T02:02:44;3.72;;;1.35;;
27163;SDS011;14685;50.618;7.024;2024-03-29T02:05:10;5.47;;;1.52;;
27163;SDS011;14685;50.618;7.024;2024-03-29T02:07:36;1.80;;;0.85;;
27163;SDS011;14685;50.618;7.024;2024-03-29T02:10:03;2.53;;;1.08;;
27163;SDS011;14685;50.618;7.024;2024-03-29T02:12:32;2.72;;;0.80;;
27163;SDS011;14685;50.618;7.024;2024-03-29T02:14:57;4.72;;;1.30;;
27163;SDS011;14685;50.618;7.024;2024-03-29T02:17:24;4.22;;;1.30;;
27163;SDS011;14685;50.618;7.024;2024-03-29T02:19:50;6.40;;;1.33;;
27163;SDS011;14685;50.618;7.024;2024-03-29T02:22:16;4.35;;;1.30;;
27163;SDS011;14685;50.618;7.024;2024-03-29T02:24:44;4.45;;;1.15;;
27163;SDS011;14685;50.618;7.024;2024-03-29T02:27:10;2.50;;;1.00;;
27163;SDS011;14685;50.618;7.024;2024-03-29T02:29:36;2.13;;;1.05;;
27163;SDS011;14685;50.618;7.024;2024-03-29T02:32:05;3.80;;;0.95;;
27163;SDS011;14685;50.618;7.024;2024-03-29T02:34:31;6.82;;;1.20;;
27163;SDS011;14685;50.618;7.024;2024-03-29T02:36:56;5.25;;;1.17;;
27163;SDS011;14685;50.618;7.024;2024-03-29T02:39:22;3.58;;;1.10;;
27163;SDS011;14685;50.618;7.024;2024-03-29T02:41:48;4.32;;;1.20;;
27163;SDS011;14685;50.618;7.024;2024-03-29T02:44:14;4.20;;;1.55;;
27163;SDS011;14685;50.618;7.024;2024-03-29T02:46:41;5.88;;;1.55;;
27163;SDS011;14685;50.618;7.024;2024-03-29T02:49:08;2.00;;;1.00;;
27163;SDS011;14685;50.618;7.024;2024-03-29T02:51:34;5.18;;;1.02;;
27163;SDS011;14685;50.618;7.024;2024-03-29T02:54:01;5.28;;;1.45;;
27163;SDS011;14685;50.618;7.024;2024-03-29T02:56:27;2.95;;;1.27;;
27163;SDS011;14685;50.618;7.024;2024-03-29T02:58:53;2.17;;;1.15;;
27163;SDS011;14685;50.618;7.024;2024-03-29T03:01:19;5.03;;;1.27;;
27163;SDS011;14685;50.618;7.024;2024-03-29T03:03:46;3.13;;;1.17;;
27163;SDS011;14685;50.618;7.024;2024-03-29T03:06:11;3.08;;;1.10;;
27163;SDS011;14685;50.618;7.024;2024-03-29T03:08:37;3.83;;;1.02;;
27163;SDS011;14685;50.618;7.024;2024-03-29T03:11:22;4.45;;;1.35;;
27163;SDS011;14685;50.618;7.024;2024-03-29T03:13:47;3.85;;;1.27;;
27163;SDS011;14685;50.618;7.024;2024-03-29T03:16:13;6.78;;;1.40;;
27163;SDS011;14685;50.618;7.024;2024-03-29T03:18:39;2.30;;;1.08;;
27163;SDS011;14685;50.618;7.024;2024-03-29T03:21:05;3.90;;;1.10;;
27163;SDS011;14685;50.618;7.024;2024-03-29T03:23:31;4.50;;;1.05;;
27163;SDS011;14685;50.618;7.024;2024-03-29T03:25:59;3.28;;;1.10;;
27163;SDS011;14685;50.618;7.024;2024-03-29T03:28:26;4.53;;;1.58;;
27163;SDS011;14685;50.618;7.024;2024-03-29T03:30:52;3.33;;;1.30;;
27163;SDS011;14685;50.618;7.024;2024-03-29T03:33:19;2.90;;;1.20;;
27163;SDS011;14685;50.618;7.024;2024-03-29T03:35:45;3.17;;;1.30;;
27163;SDS011;14685;50.618;7.024;2024-03-29T03:38:12;4.68;;;1.17;;
27163;SDS011;14685;50.618;7.024;2024-03-29T03:40:38;2.90;;;1.20;;
27163;SDS011;14685;50.618;7.024;2024-03-29T03:43:05;6.03;;;1.20;;
27163;SDS011;14685;50.618;7.024;2024-03-29T03:45:35;3.38;;;1.10;;
27163;SDS011;14685;50.618;7.024;2024-03-29T03:48:20;4.45;;;1.00;;
27163;SDS011;14685;50.618;7.024;2024-03-29T03:53:12;3.50;;;1.10;;
27163;SDS011;14685;50.618;7.024;2024-03-29T03:55:38;3.47;;;1.10;;
27163;SDS011;14685;50.618;7.024;2024-03-29T03:58:04;3.53;;;1.15;;
27163;SDS011;14685;50.618;7.024;2024-03-29T04:00:30;2.30;;;1.20;;
27163;SDS011;14685;50.618;7.024;2024-03-29T04:02:56;5.32;;;1.35;;
27163;SDS011;14685;50.618;7.024;2024-03-29T04:05:24;2.70;;;1.10;;
27163;SDS011;14685;50.618;7.024;2024-03-29T04:07:51;1.73;;;0.80;;
27163;SDS011;14685;50.618;7.024;2024-03-29T04:10:17;2.85;;;1.00;;
27163;SDS011;14685;50.618;7.024;2024-03-29T04:12:43;7.00;;;1.45;;
27163;SDS011;14685;50.618;7.024;2024-03-29T04:15:09;3.83;;;1.20;;
27163;SDS011;14685;50.618;7.024;2024-03-29T04:17:35;3.00;;;0.90;;
27163;SDS011;14685;50.618;7.024;2024-03-29T04:20:01;3.70;;;1.27;;
27163;SDS011;14685;50.618;7.024;2024-03-29T04:22:28;5.07;;;1.20;;
27163;SDS011;14685;50.618;7.024;2024-03-29T04:24:54;3.47;;;1.10;;
27163;SDS011;14685;50.618;7.024;2024-03-29T04:27:20;4.03;;;1.00;;
27163;SDS011;14685;50.618;7.024;2024-03-29T04:29:45;4.95;;;1.45;;
27163;SDS011;14685;50.618;7.024;2024-03-29T04:32:11;3.80;;;1.27;;
27163;SDS011;14685;50.618;7.024;2024-03-29T04:34:38;5.32;;;1.67;;
27163;SDS011;14685;50.618;7.024;2024-03-29T04:37:04;3.28;;;1.00;;
27163;SDS011;14685;50.618;7.024;2024-03-29T04:39:29;2.28;;;0.90;;
27163;SDS011;14685;50.618;7.024;2024-03-29T04:41:55;5.07;;;1.17;;
27163;SDS011;14685;50.618;7.024;2024-03-29T04:44:24;2.97;;;1.35;;
27163;SDS011;14685;50.618;7.024;2024-03-29T04:46:50;5.45;;;1.55;;
27163;SDS011;14685;50.618;7.024;2024-03-29T04:49:21;3.83;;;1.30;;
27163;SDS011;14685;50.618;7.024;2024-03-29T04:51:56;2.85;;;1.00;;
27163;SDS011;14685;50.618;7.024;2024-03-29T04:54:22;4.63;;;1.25;;
27163;SDS011;14685;50.618;7.024;2024-03-29T04:56:48;2.67;;;1.00;;
27163;SDS011;14685;50.618;7.024;2024-03-29T04:59:14;4.28;;;1.42;;
27163;SDS011;14685;50.618;7.024;2024-03-29T05:01:43;5.18;;;1.38;;
27163;SDS011;14685;50.618;7.024;2024-03-29T05:04:16;3.83;;;1.45;;
27163;SDS011;14685;50.618;7.024;2024-03-29T05:06:44;3.30;;;1.23;;
27163;SDS011;14685;50.618;7.024;2024-03-29T05:09:13;3.10;;;1.02;;
27163;SDS011;14685;50.618;7.024;2024-03-29T05:11:38;2.40;;;1.08;;
27163;SDS011;14685;50.618;7.024;2024-03-29T05:14:04;5.38;;;1.30;;
27163;SDS011;14685;50.618;7.024;2024-03-29T05:16:30;4.75;;;0.93;;
27163;SDS011;14685;50.618;7.024;2024-03-29T05:18:57;3.30;;;1.33;;
27163;SDS011;14685;50.618;7.024;2024-03-29T05:21:23;5.07;;;1.33;;
27163;SDS011;14685;50.618;7.024;2024-03-29T05:23:48;4.18;;;1.50;;
27163;SDS011;14685;50.618;7.024;2024-03-29T05:26:14;3.05;;;1.27;;
27163;SDS011;14685;50.618;7.024;2024-03-29T05:28:40;4.53;;;1.23;;
27163;SDS011;14685;50.618;7.024;2024-03-29T05:31:12;1.75;;;0.80;;
27163;SDS011;14685;50.618;7.024;2024-03-29T05:33:42;3.65;;;1.50;;
27163;SDS011;14685;50.618;7.024;2024-03-29T05:36:10;4.03;;;1.55;;
27163;SDS011;14685;50.618;7.024;2024-03-29T05:38:38;2.85;;;1.10;;
27163;SDS011;14685;50.618;7.024;2024-03-29T05:41:05;2.40;;;1.10;;
27163;SDS011;14685;50.618;7.024;2024-03-29T05:43:31;1.38;;;1.00;;
27163;SDS011;14685;50.618;7.024;2024-03-29T05:45:56;3.10;;;1.15;;
27163;SDS011;14685;50.618;7.024;2024-03-29T05:48:23;2.75;;;0.90;;
27163;SDS011;14685;50.618;7.024;2024-03-29T05:50:49;2.45;;;1.10;;
27163;SDS011;14685;50.618;7.024;2024-03-29T05:53:14;1.73;;;1.02;;
27163;SDS011;14685;50.618;7.024;2024-03-29T05:55:40;1.58;;;0.85;;
27163;SDS011;14685;50.618;7.024;2024-03-29T05:58:06;3.70;;;0.95;;
27163;SDS011;14685;50.618;7.024;2024-03-29T06:00:32;2.60;;;0.90;;
27163;SDS011;14685;50.618;7.024;2024-03-29T06:03:01;2.25;;;1.20;;
27163;SDS011;14685;50.618;7.024;2024-03-29T06:05:30;4.75;;;1.27;;
27163;SDS011;14685;50.618;7.024;2024-03-29T06:07:56;5.88;;;1.20;;
27163;SDS011;14685;50.618;7.024;2024-03-29T06:10:22;2.45;;;0.88;;
27163;SDS011;14685;50.618;7.024;2024-03-29T06:12:48;2.17;;;0.90;;
27163;SDS011;14685;50.618;7.024;2024-03-29T06:15:13;3.17;;;1.10;;
27163;SDS011;14685;50.618;7.024;2024-03-29T06:20:24;3.70;;;0.98;;
27163;SDS011;14685;50.618;7.024;2024-03-29T06:22:51;3.10;;;0.88;;
27163;SDS011;14685;50.618;7.024;2024-03-29T06:25:17;3.30;;;0.90;;
27163;SDS011;14685;50.618;7.024;2024-03-29T06:27:42;1.30;;;1.05;;
27163;SDS011;14685;50.618;7.024;2024-03-29T06:30:12;1.58;;;0.75;;
27163;SDS011;14685;50.618;7.024;2024-03-29T06:32:39;1.30;;;0.80;;
27163;SDS011;14685;50.618;7.024;2024-03-29T06:35:05;2.35;;;0.95;;
27163;SDS011;14685;50.618;7.024;2024-03-29T06:37:31;1.75;;;1.02;;
27163;SDS011;14685;50.618;7.024;2024-03-29T06:39:57;1.35;;;1.05;;
27163;SDS011;14685;50.618;7.024;2024-03-29T06:42:23;4.45;;;1.30;;
27163;SDS011;14685;50.618;7.024;2024-03-29T06:44:49;2.28;;;1.00;;
27163;SDS011;14685;50.618;7.024;2024-03-29T06:47:15;2.70;;;1.10;;
27163;SDS011;14685;50.618;7.024;2024-03-29T06:49:40;1.80;;;1.15;;
27163;SDS011;14685;50.618;7.024;2024-03-29T06:52:06;3.00;;;1.08;;
27163;SDS011;14685;50.618;7.024;2024-03-29T06:54:32;1.30;;;0.90;;
27163;SDS011;14685;50.618;7.024;2024-03-29T06:56:58;1.48;;;0.70;;
27163;SDS011;14685;50.618;7.024;2024-03-29T06:59:25;1.42;;;0.85;;
27163;SDS011;14685;50.618;7.024;2024-03-29T07:01:51;0.70;;;0.70;;
27163;SDS011;14685;50.618;7.024;2024-03-29T07:04:18;0.80;;;0.80;;
27163;SDS011;14685;50.618;7.024;2024-03-29T07:06:45;2.80;;;1.00;;
27163;SDS011;14685;50.618;7.024;2024-03-29T07:09:13;1.73;;;0.90;;
27163;SDS011;14685;50.618;7.024;2024-03-29T07:11:40;3.00;;;0.85;;
27163;SDS011;14685;50.618;7.024;2024-03-29T07:14:05;2.85;;;1.02;;
27163;SDS011;14685;50.618;7.024;2024-03-29T07:16:31;2.40;;;0.90;;
27163;SDS011;14685;50.618;7.024;2024-03-29T07:19:00;0.73;;;0.73;;
27163;SDS011;14685;50.618;7.024;2024-03-29T07:21:26;1.45;;;0.77;;
27163;SDS011;14685;50.618;7.024;2024-03-29T07:23:51;1.55;;;1.00;;
27163;SDS011;14685;50.618;7.024;2024-03-29T07:26:17;1.20;;;0.65;;
27163;SDS011;14685;50.618;7.024;2024-03-29T07:28:43;1.90;;;0.70;;
27163;SDS011;14685;50.618;7.024;2024-03-29T07:31:09;1.42;;;0.70;;
27163;SDS011;14685;50.618;7.024;2024-03-29T07:33:35;0.82;;;0.60;;
27163;SDS011;14685;50.618;7.024;2024-03-29T07:36:02;2.05;;;0.88;;
27163;SDS011;14685;50.618;7.024;2024-03-29T07:38:29;1.20;;;0.70;;
27163;SDS011;14685;50.618;7.024;2024-03-29T07:40:55;1.30;;;0.90;;
27163;SDS011;14685;50.618;7.024;2024-03-29T07:43:22;1.17;;;0.80;;
27163;SDS011;14685;50.618;7.024;2024-03-29T07:45:48;2.83;;;0.73;;
27163;SDS011;14685;50.618;7.024;2024-03-29T07:48:16;1.13;;;0.80;;
27163;SDS011;14685;50.618;7.024;2024-03-29T07:50:43;0.85;;;0.75;;
27163;SDS011;14685;50.618;7.024;2024-03-29T07:53:10;0.90;;;0.68;;
27163;SDS011;14685;50.618;7.024;2024-03-29T07:55:37;0.90;;;0.63;;
27163;SDS011;14685;50.618;7.024;2024-03-29T07:58:04;1.13;;;0.77;;
27163;SDS011;14685;50.618;7.024;2024-03-29T08:00:31;1.15;;;0.63;;
27163;SDS011;14685;50.618;7.024;2024-03-29T08:02:58;0.63;;;0.52;;
27163;SDS011;14685;50.618;7.024;2024-03-29T08:05:24;1.35;;;0.68;;
27163;SDS011;14685;50.618;7.024;2024-03-29T08:07:50;2.00;;;0.77;;
27163;SDS011;14685;50.618;7.024;2024-03-29T08:10:16;1.83;;;1.35;;
27163;SDS011;14685;50.618;7.024;2024-03-29T08:12:42;1.55;;;0.90;;
27163;SDS011;14685;50.618;7.024;2024-03-29T08:15:08;1.42;;;0.70;;
27163;SDS011;14685;50.618;7.024;2024-03-29T08:17:34;2.20;;;0.80;;
27163;SDS011;14685;50.618;7.024;2024-03-29T08:20:00;2.03;;;0.70;;
27163;SDS011;14685;50.618;7.024;2024-03-29T08:22:27;1.27;;;0.50;;
27163;SDS011;14685;50.618;7.024;2024-03-29T08:24:54;1.58;;;0.65;;
27163;SDS011;14685;50.618;7.024;2024-03-29T08:27:20;0.85;;;0.50;;
27163;SDS011;14685;50.618;7.024;2024-03-29T08:29:46;0.68;;;0.68;;
27163;SDS011;14685;50.618;7.024;2024-03-29T08:32:14;0.40;;;0.40;;
27163;SDS011;14685;50.618;7.024;2024-03-29T08:34:41;1.90;;;0.55;;
27163;SDS011;14685;50.618;7.024;2024-03-29T08:37:07;0.50;;;0.50;;
27163;SDS011;14685;50.618;7.024;2024-03-29T08:39:33;1.02;;;0.55;;
27163;SDS011;14685;50.618;7.024;2024-03-29T08:42:00;2.53;;;0.80;;
27163;SDS011;14685;50.618;7.024;2024-03-29T08:44:30;1.27;;;0.52;;
27163;SDS011;14685;50.618;7.024;2024-03-29T08:46:57;0.60;;;0.60;;
27163;SDS011;14685;50.618;7.024;2024-03-29T08:49:24;1.05;;;0.70;;
27163;SDS011;14685;50.618;7.024;2024-03-29T08:51:51;0.90;;;0.43;;
27163;SDS011;14685;50.618;7.024;2024-03-29T08:54:17;0.75;;;0.45;;
27163;SDS011;14685;50.618;7.024;2024-03-29T08:56:44;0.77;;;0.55;;
27163;SDS011;14685;50.618;7.024;2024-03-29T08:59:25;0.93;;;0.50;;
27163;SDS011;14685;50.618;7.024;2024-03-29T09:01:51;1.65;;;0.60;;
27163;SDS011;14685;50.618;7.024;2024-03-29T09:04:18;2.35;;;0.70;;
27163;SDS011;14685;50.618;7.024;2024-03-29T09:06:45;0.40;;;0.40;;
27163;SDS011;14685;50.618;7.024;2024-03-29T09:09:13;0.50;;;0.50;;
27163;SDS011;14685;50.618;7.024;2024-03-29T09:11:39;0.45;;;0.40;;
27163;SDS011;14685;50.618;7.024;2024-03-29T09:14:05;1.80;;;0.55;;
27163;SDS011;14685;50.618;7.024;2024-03-29T09:16:32;0.40;;;0.40;;
27163;SDS011;14685;50.618;7.024;2024-03-29T09:18:58;1.30;;;0.40;;
27163;SDS011;14685;50.618;7.024;2024-03-29T09:21:24;0.30;;;0.30;;
27163;SDS011;14685;50.618;7.024;2024-03-29T09:23:50;0.50;;;0.50;;
27163;SDS011;14685;50.618;7.024;2024-03-29T09:26:18;0.55;;;0.50;;
27163;SDS011;14685;50.618;7.024;2024-03-29T09:28:44;0.55;;;0.50;;
27163;SDS011;14685;50.618;7.024;2024-03-29T09:31:10;0.47;;;0.47;;
27163;SDS011;14685;50.618;7.024;2024-03-29T09:33:36;0.50;;;0.50;;
27163;SDS011;14685;50.618;7.024;2024-03-29T09:36:04;0.52;;;0.52;;
27163;SDS011;14685;50.618;7.024;2024-03-29T09:38:30;0.82;;;0.50;;
27163;SDS011;14685;50.618;7.024;2024-03-29T09:46:13;0.93;;;0.60;;
27163;SDS011;14685;50.618;7.024;2024-03-29T09:48:40;1.05;;;0.40;;
27163;SDS011;14685;50.618;7.024;2024-03-29T09:51:07;0.73;;;0.50;;
27163;SDS011;14685;50.618;7.024;2024-03-29T09:53:34;0.47;;;0.40;;
27163;SDS011;14685;50.618;7.024;2024-03-29T09:56:04;0.80;;;0.63;;
27163;SDS011;14685;50.618;7.024;2024-03-29T09:58:32;0.82;;;0.52;;
27163;SDS011;14685;50.618;7.024;2024-03-29T10:00:58;1.58;;;0.60;;
27163;SDS011;14685;50.618;7.024;2024-03-29T10:03:25;0.50;;;0.50;;
27163;SDS011;14685;50.618;7.024;2024-03-29T10:05:59;0.88;;;0.63;;
27163;SDS011;14685;50.618;7.024;2024-03-29T10:08:29;5.53;;;0.93;;
27163;SDS011;14685;50.618;7.024;2024-03-29T10:10:59;1.00;;;0.50;;
27163;SDS011;14685;50.618;7.024;2024-03-29T10:13:25;0.57;;;0.50;;
27163;SDS011;14685;50.618;7.024;2024-03-29T10:15:52;0.60;;;0.60;;
27163;SDS011;14685;50.618;7.024;2024-03-29T10:18:24;3.92;;;0.80;;
27163;SDS011;14685;50.618;7.024;2024-03-29T10:21:06;0.63;;;0.50;;
27163;SDS011;14685;50.618;7.024;2024-03-29T10:23:34;1.30;;;0.60;;
27163;SDS011;14685;50.618;7.024;2024-03-29T10:26:04;0.88;;;0.60;;
27163;SDS011;14685;50.618;7.024;2024-03-29T10:28:31;1.00;;;0.60;;
27163;SDS011;14685;50.618;7.024;2024-03-29T10:31:04;2.97;;;0.73;;
27163;SDS011;14685;50.618;7.024;2024-03-29T10:33:31;0.40;;;0.40;;
27163;SDS011;14685;50.618;7.024;2024-03-29T10:36:01;0.75;;;0.65;;
27163;SDS011;14685;50.618;7.024;2024-03-29T10:38:31;2.05;;;0.60;;
27163;SDS011;14685;50.618;7.024;2024-03-29T10:40:57;1.02;;;0.50;;
27163;SDS011;14685;50.618;7.024;2024-03-29T10:43:24;0.65;;;0.50;;
27163;SDS011;14685;50.618;7.024;2024-03-29T10:45:50;1.13;;;0.60;;
27163;SDS011;14685;50.618;7.024;2024-03-29T10:51:31;0.80;;;0.50;;
27163;SDS011;14685;50.618;7.024;2024-03-29T10:54:00;0.55;;;0.47;;
27163;SDS011;14685;50.618;7.024;2024-03-29T10:56:47;0.57;;;0.40;;
27163;SDS011;14685;50.618;7.024;2024-03-29T10:59:44;0.65;;;0.50;;
27163;SDS011;14685;50.618;7.024;2024-03-29T11:03:10;0.35;;;0.35;;
27163;SDS011;14685;50.618;7.024;2024-03-29T11:06:02;0.30;;;0.30;;
27163;SDS011;14685;50.618;7.024;2024-03-29T11:08:46;0.50;;;0.50;;
27163;SDS011;14685;50.618;7.024;2024-03-29T11:11:40;0.47;;;0.40;;
27163;SDS011;14685;50.618;7.024;2024-03-29T11:14:37;0.43;;;0.43;;
27163;SDS011;14685;50.618;7.024;2024-03-29T11:17:25;0.45;;;0.45;;
27163;SDS011;14685;50.618;7.024;2024-03-29T11:20:07;1.67;;;0.60;;
27163;SDS011;14685;50.618;7.024;2024-03-29T11:23:05;0.60;;;0.50;;
27163;SDS011;14685;50.618;7.024;2024-03-29T11:25:44;0.50;;;0.50;;
27163;SDS011;14685;50.618;7.024;2024-03-29T11:28:23;1.33;;;0.57;;
27163;SDS011;14685;50.618;7.024;2024-03-29T11:31:09;0.50;;;0.50;;
27163;SDS011;14685;50.618;7.024;2024-03-29T11:33:50;1.45;;;0.45;;
27163;SDS011;14685;50.618;7.024;2024-03-29T11:36:18;0.50;;;0.50;;
27163;SDS011;14685;50.618;7.024;2024-03-29T11:39:07;1.10;;;0.50;;
27163;SDS011;14685;50.618;7.024;2024-03-29T11:41:45;1.08;;;0.60;;
27163;SDS011;14685;50.618;7.024;2024-03-29T11:44:17;0.50;;;0.50;;
27163;SDS011;14685;50.618;7.024;2024-03-29T11:46:58;1.40;;;0.50;;
27163;SDS011;14685;50.618;7.024;2024-03-29T11:49:27;1.00;;;0.60;;
27163;SDS011;14685;50.618;7.024;2024-03-29T11:52:11;0.60;;;0.60;;
27163;SDS011;14685;50.618;7.024;2024-03-29T11:55:05;2.17;;;0.60;;
27163;SDS011;14685;50.618;7.024;2024-03-29T11:57:51;0.90;;;0.57;;
27163;SDS011;14685;50.618;7.024;2024-03-29T12:00:33;1.13;;;0.60;;
27163;SDS011;14685;50.618;7.024;2024-03-29T12:03:16;0.82;;;0.50;;
27163;SDS011;14685;50.618;7.024;2024-03-29T12:05:59;0.77;;;0.60;;
27163;SDS011;14685;50.618;7.024;2024-03-29T12:08:43;0.50;;;0.40;;
27163;SDS011;14685;50.618;7.024;2024-03-29T12:11:34;1.65;;;0.50;;
27163;SDS011;14685;50.618;7.024;2024-03-29T12:14:16;1.20;;;0.45;;
27163;SDS011;14685;50.618;7.024;2024-03-29T12:16:57;0.50;;;0.50;;
27163;SDS011;14685;50.618;7.024;2024-03-29T12:20:01;0.88;;;0.60;;
27163;SDS011;14685;50.618;7.024;2024-03-29T12:22:50;0.43;;;0.43;;
27163;SDS011;14685;50.618;7.024;2024-03-29T12:25:19;1.55;;;0.50;;
27163;SDS011;14685;50.618;7.024;2024-03-29T12:28:03;0.65;;;0.50;;
27163;SDS011;14685;50.618;7.024;2024-03-29T12:30:32;0.45;;;0.45;;
27163;SDS011;14685;50.618;7.024;2024-03-29T12:35:52;0.40;;;0.40;;
27163;SDS011;14685;50.618;7.024;2024-03-29T12:38:34;0.40;;;0.40;;
27163;SDS011;14685;50.618;7.024;2024-03-29T12:41:02;1.98;;;1.20;;
27163;SDS011;14685;50.618;7.024;2024-03-29T12:43:44;1.50;;;1.10;;
27163;SDS011;14685;50.618;7.024;2024-03-29T12:46:12;0.70;;;0.50;;
27163;SDS011;14685;50.618;7.024;2024-03-29T12:48:45;0.90;;;0.90;;
27163;SDS011;14685;50.618;7.024;2024-03-29T12:51:13;0.60;;;0.60;;
27163;SDS011;14685;50.618;7.024;2024-03-29T12:53:55;1.10;;;0.60;;
27163;SDS011;14685;50.618;7.024;2024-03-29T12:56:31;1.20;;;0.70;;
27163;SDS011;14685;50.618;7.024;2024-03-29T12:58:58;1.00;;;0.90;;
27163;SDS011;14685;50.618;7.024;2024-03-29T13:01:25;1.35;;;0.82;;
27163;SDS011;14685;50.618;7.024;2024-03-29T13:04:06;0.82;;;0.63;;
27163;SDS011;14685;50.618;7.024;2024-03-29T13:06:34;1.27;;;0.60;;
27163;SDS011;14685;50.618;7.024;2024-03-29T13:09:25;1.65;;;0.80;;
27163;SDS011;14685;50.618;7.024;2024-03-29T13:12:02;0.50;;;0.50;;
27163;SDS011;14685;50.618;7.024;2024-03-29T13:14:31;0.68;;;0.50;;
27163;SDS011;14685;50.618;7.024;2024-03-29T13:17:01;0.60;;;0.60;;
27163;SDS011;14685;50.618;7.024;2024-03-29T13:19:37;0.80;;;0.60;;
27163;SDS011;14685;50.618;7.024;2024-03-29T13:22:39;0.40;;;0.40;;
27163;SDS011;14685;50.618;7.024;2024-03-29T13:25:16;0.93;;;0.70;;
27163;SDS011;14685;50.618;7.024;2024-03-29T13:28:01;0.70;;;0.57;;
27163;SDS011;14685;50.618;7.024;2024-03-29T13:30:53;1.38;;;0.63;;
27163;SDS011;14685;50.618;7.024;2024-03-29T13:33:42;0.45;;;0.45;;
27163;SDS011;14685;50.618;7.024;2024-03-29T13:36:35;0.60;;;0.60;;
27163;SDS011;14685;50.618;7.024;2024-03-29T13:39:17;0.50;;;0.50;;
27163;SDS011;14685;50.618;7.024;2024-03-29T13:42:02;1.30;;;0.60;;
27163;SDS011;14685;50.618;7.024;2024-03-29T13:44:38;1.23;;;0.52;;
27163;SDS011;14685;50.618;7.024;2024-03-29T13:47:20;0.60;;;0.60;;
27163;SDS011;14685;50.618;7.024;2024-03-29T13:49:48;0.63;;;0.60;;
27163;SDS011;14685;50.618;7.024;2024-03-29T13:52:35;0.90;;;0.60;;
27163;SDS011;14685;50.618;7.024;2024-03-29T13:55:16;0.70;;;0.50;;
27163;SDS011;14685;50.618;7.024;2024-03-29T13:57:57;0.82;;;0.68;;
27163;SDS011;14685;50.618;7.024;2024-03-29T14:00:26;2.08;;;0.50;;
27163;SDS011;14685;50.618;7.024;2024-03-29T14:03:07;0.55;;;0.50;;
27163;SDS011;14685;50.618;7.024;2024-03-29T14:05:32;0.82;;;0.70;;
27163;SDS011;14685;50.618;7.024;2024-03-29T14:08:39;0.88;;;0.60;;
27163;SDS011;14685;50.618;7.024;2024-03-29T14:11:21;0.57;;;0.57;;
27163;SDS011;14685;50.618;7.024;2024-03-29T14:13:59;0.57;;;0.57;;
27163;SDS011;14685;50.618;7.024;2024-03-29T14:16:33;0.60;;;0.60;;
27163;SDS011;14685;50.618;7.024;2024-03-29T14:19:03;3.03;;;0.60;;
27163;SDS011;14685;50.618;7.024;2024-03-29T14:22:00;1.10;;;0.70;;
27163;SDS011;14685;50.618;7.024;2024-03-29T14:24:45;1.17;;;0.80;;
27163;SDS011;14685;50.618;7.024;2024-03-29T14:27:27;0.73;;;0.70;;
27163;SDS011;14685;50.618;7.024;2024-03-29T14:30:13;1.02;;;0.60;;
27163;SDS011;14685;50.618;7.024;2024-03-29T14:32:46;1.83;;;0.70;;
27163;SDS011;14685;50.618;7.024;2024-03-29T14:35:31;1.08;;;0.60;;
27163;SDS011;14685;50.618;7.024;2024-03-29T14:38:16;0.70;;;0.65;;
27163;SDS011;14685;50.618;7.024;2024-03-29T14:40:58;0.95;;;0.68;;
27163;SDS011;14685;50.618;7.024;2024-03-29T14:43:41;1.38;;;0.60;;
27163;SDS011;14685;50.618;7.024;2024-03-29T14:46:24;0.93;;;0.70;;
27163;SDS011;14685;50.618;7.024;2024-03-29T14:49:02;0.43;;;0.43;;
27163;SDS011;14685;50.618;7.024;2024-03-29T14:51:46;0.85;;;0.60;;
27163;SDS011;14685;50.618;7.024;2024-03-29T14:54:19;0.65;;;0.50;;
27163;SDS011;14685;50.618;7.024;2024-03-29T14:57:00;2.97;;;0.55;;
27163;SDS011;14685;50.618;7.024;2024-03-29T14:59:41;0.95;;;0.63;;
27163;SDS011;14685;50.618;7.024;2024-03-29T15:02:23;1.38;;;0.47;;
27163;SDS011;14685;50.618;7.024;2024-03-29T15:04:51;0.68;;;0.50;;
27163;SDS011;14685;50.618;7.024;2024-03-29T15:07:33;1.33;;;0.70;;
27163;SDS011;14685;50.618;7.024;2024-03-29T15:10:26;0.55;;;0.55;;
27163;SDS011;14685;50.618;7.024;2024-03-29T15:13:11;1.75;;;0.40;;
27163;SDS011;14685;50.618;7.024;2024-03-29T15:15:58;0.82;;;0.50;;
27163;SDS011;14685;50.618;7.024;2024-03-29T15:18:31;0.75;;;0.40;;
27163;SDS011;14685;50.618;7.024;2024-03-29T15:21:19;0.85;;;0.50;;
27163;SDS011;14685;50.618;7.024;2024-03-29T15:24:01;0.50;;;0.50;;
27163;SDS011;14685;50.618;7.024;2024-03-29T15:26:28;0.73;;;0.32;;